sensor_id;sensor_type;location;lat;lon;timestamp;P1;durP1;ratioP1;P2;durP2;ratioP2
29452;SDS011;16424;50.956;5.320;2023-07-20T00:02:27;5.80;;;4.18;;
29452;SDS011;16424;50.956;5.320;2023-07-20T00:04:53;8.27;;;3.70;;
29452;SDS011;16424;50.956;5.320;2023-07-20T00:07:19;6.75;;;3.88;;
29452;SDS011;16424;50.956;5.320;2023-07-20T00:09:45;9.50;;;4.10;;
29452;SDS011;16424;50.956;5.320;2023-07-20T00:12:14;7.35;;;3.65;;
29452;SDS011;16424;50.956;5.320;2023-07-20T00:14:43;8.27;;;4.15;;
29452;SDS011;16424;50.956;5.320;2023-07-20T00:17:09;12.95;;;3.88;;
29452;SDS011;16424;50.956;5.320;2023-07-20T00:19:35;5.78;;;3.72;;
29452;SDS011;16424;50.956;5.320;2023-07-20T00:22:04;9.57;;;3.40;;
29452;SDS011;16424;50.956;5.320;2023-07-20T00:24:33;6.72;;;3.90;;
29452;SDS011;16424;50.956;5.320;2023-07-20T00:26:59;7.03;;;3.30;;
29452;SDS011;16424;50.956;5.320;2023-07-20T00:29:29;6.93;;;3.60;;
29452;SDS011;16424;50.956;5.320;2023-07-20T00:32:06;7.07;;;3.60;;
29452;SDS011;16424;50.956;5.320;2023-07-20T00:34:37;7.25;;;3.92;;
29452;SDS011;16424;50.956;5.320;2023-07-20T00:37:09;5.28;;;3.60;;
29452;SDS011;16424;50.956;5.320;2023-07-20T00:39:36;6.60;;;3.35;;
29452;SDS011;16424;50.956;5.320;2023-07-20T00:42:07;8.25;;;3.47;;
29452;SDS011;16424;50.956;5.320;2023-07-20T00:44:36;5.18;;;3.40;;
29452;SDS011;16424;50.956;5.320;2023-07-20T00:47:08;9.85;;;4.30;;
29452;SDS011;16424;50.956;5.320;2023-07-20T00:49:37;7.32;;;3.97;;
29452;SDS011;16424;50.956;5.320;2023-07-20T00:52:04;8.15;;;3.40;;
29452;SDS011;16424;50.956;5.320;2023-07-20T00:54:36;5.53;;;3.38;;
29452;SDS011;16424;50.956;5.320;2023-07-20T00:57:03;5.43;;;3.35;;
29452;SDS011;16424;50.956;5.320;2023-07-20T00:59:37;4.65;;;3.47;;
29452;SDS011;16424;50.956;5.320;2023-07-20T01:02:06;6.45;;;3.65;;
29452;SDS011;16424;50.956;5.320;2023-07-20T01:04:35;8.27;;;3.95;;
29452;SDS011;16424;50.956;5.320;2023-07-20T01:09:39;9.60;;;3.30;;
29452;SDS011;16424;50.956;5.320;2023-07-20T01:12:18;6.75;;;3.60;;
29452;SDS011;16424;50.956;5.320;2023-07-20T01:15:00;9.23;;;3.67;;
29452;SDS011;16424;50.956;5.320;2023-07-20T01:17:30;7.25;;;3.47;;
29452;SDS011;16424;50.956;5.320;2023-07-20T01:19:56;8.10;;;3.80;;
29452;SDS011;16424;50.956;5.320;2023-07-20T01:22:34;9.05;;;3.90;;
29452;SDS011;16424;50.956;5.320;2023-07-20T01:31:28;8.48;;;3.80;;
29452;SDS011;16424;50.956;5.320;2023-07-20T01:34:02;6.80;;;3.50;;
29452;SDS011;16424;50.956;5.320;2023-07-20T01:36:41;10.17;;;3.40;;
29452;SDS011;16424;50.956;5.320;2023-07-20T01:39:09;6.57;;;3.78;;
29452;SDS011;16424;50.956;5.320;2023-07-20T01:41:36;11.60;;;3.97;;
29452;SDS011;16424;50.956;5.320;2023-07-20T01:44:03;9.80;;;3.17;;
29452;SDS011;16424;50.956;5.320;2023-07-20T01:46:38;13.77;;;4.22;;
29452;SDS011;16424;50.956;5.320;2023-07-20T01:49:09;10.60;;;4.13;;
29452;SDS011;16424;50.956;5.320;2023-07-20T01:51:46;6.75;;;4.13;;
29452;SDS011;16424;50.956;5.320;2023-07-20T01:54:15;7.40;;;3.88;;
29452;SDS011;16424;50.956;5.320;2023-07-20T01:56:47;9.63;;;3.78;;
29452;SDS011;16424;50.956;5.320;2023-07-20T02:01:52;7.82;;;3.35;;
29452;SDS011;16424;50.956;5.320;2023-07-20T02:04:20;6.70;;;3.45;;
29452;SDS011;16424;50.956;5.320;2023-07-20T02:06:57;7.13;;;3.47;;
29452;SDS011;16424;50.956;5.320;2023-07-20T02:09:28;8.65;;;3.72;;
29452;SDS011;16424;50.956;5.320;2023-07-20T02:11:54;7.32;;;3.28;;
29452;SDS011;16424;50.956;5.320;2023-07-20T02:14:21;6.40;;;3.22;;
29452;SDS011;16424;50.956;5.320;2023-07-20T02:16:55;7.30;;;3.40;;
29452;SDS011;16424;50.956;5.320;2023-07-20T02:19:25;6.88;;;3.75;;
29452;SDS011;16424;50.956;5.320;2023-07-20T02:21:56;6.72;;;3.20;;
29452;SDS011;16424;50.956;5.320;2023-07-20T02:24:26;5.10;;;3.03;;
29452;SDS011;16424;50.956;5.320;2023-07-20T02:26:55;7.25;;;3.38;;
29452;SDS011;16424;50.956;5.320;2023-07-20T02:29:29;12.75;;;3.58;;
29452;SDS011;16424;50.956;5.320;2023-07-20T02:32:02;6.38;;;3.28;;
29452;SDS011;16424;50.956;5.320;2023-07-20T02:34:34;8.00;;;3.70;;
29452;SDS011;16424;50.956;5.320;2023-07-20T02:37:03;6.20;;;3.65;;
29452;SDS011;16424;50.956;5.320;2023-07-20T02:39:38;11.35;;;3.65;;
29452;SDS011;16424;50.956;5.320;2023-07-20T02:42:13;6.68;;;3.22;;
29452;SDS011;16424;50.956;5.320;2023-07-20T02:44:47;8.48;;;3.85;;
29452;SDS011;16424;50.956;5.320;2023-07-20T02:47:19;8.18;;;4.07;;
29452;SDS011;16424;50.956;5.320;2023-07-20T02:49:57;5.95;;;3.53;;
29452;SDS011;16424;50.956;5.320;2023-07-20T02:52:23;7.68;;;4.18;;
29452;SDS011;16424;50.956;5.320;2023-07-20T02:54:51;14.02;;;4.55;;
29452;SDS011;16424;50.956;5.320;2023-07-20T02:57:17;5.57;;;3.80;;
29452;SDS011;16424;50.956;5.320;2023-07-20T02:59:49;5.97;;;3.80;;
29452;SDS011;16424;50.956;5.320;2023-07-20T03:02:21;10.45;;;3.88;;
29452;SDS011;16424;50.956;5.320;2023-07-20T03:04:47;5.95;;;3.65;;
29452;SDS011;16424;50.956;5.320;2023-07-20T03:07:18;6.13;;;3.10;;
29452;SDS011;16424;50.956;5.320;2023-07-20T03:09:49;11.52;;;3.90;;
29452;SDS011;16424;50.956;5.320;2023-07-20T03:12:18;9.57;;;3.95;;
29452;SDS011;16424;50.956;5.320;2023-07-20T03:14:52;7.97;;;3.80;;
29452;SDS011;16424;50.956;5.320;2023-07-20T03:17:29;8.82;;;3.90;;
29452;SDS011;16424;50.956;5.320;2023-07-20T03:19:59;11.15;;;3.92;;
29452;SDS011;16424;50.956;5.320;2023-07-20T03:22:34;11.75;;;4.20;;
29452;SDS011;16424;50.956;5.320;2023-07-20T03:25:02;8.77;;;4.00;;
29452;SDS011;16424;50.956;5.320;2023-07-20T03:27:35;10.55;;;4.28;;
29452;SDS011;16424;50.956;5.320;2023-07-20T03:30:08;13.07;;;4.82;;
29452;SDS011;16424;50.956;5.320;2023-07-20T03:32:40;9.90;;;4.35;;
29452;SDS011;16424;50.956;5.320;2023-07-20T03:35:09;10.65;;;5.18;;
29452;SDS011;16424;50.956;5.320;2023-07-20T03:37:41;9.13;;;4.00;;
29452;SDS011;16424;50.956;5.320;2023-07-20T03:40:10;15.52;;;5.22;;
29452;SDS011;16424;50.956;5.320;2023-07-20T03:42:36;7.60;;;4.28;;
29452;SDS011;16424;50.956;5.320;2023-07-20T03:45:05;5.90;;;4.05;;
29452;SDS011;16424;50.956;5.320;2023-07-20T03:47:32;9.70;;;4.70;;
29452;SDS011;16424;50.956;5.320;2023-07-20T03:50:01;7.68;;;4.65;;
29452;SDS011;16424;50.956;5.320;2023-07-20T03:52:31;7.38;;;4.43;;
29452;SDS011;16424;50.956;5.320;2023-07-20T03:54:57;6.93;;;3.67;;
29452;SDS011;16424;50.956;5.320;2023-07-20T03:57:26;15.70;;;4.50;;
29452;SDS011;16424;50.956;5.320;2023-07-20T03:59:58;8.15;;;4.13;;
29452;SDS011;16424;50.956;5.320;2023-07-20T04:02:27;9.20;;;4.28;;
29452;SDS011;16424;50.956;5.320;2023-07-20T04:04:53;11.48;;;4.20;;
29452;SDS011;16424;50.956;5.320;2023-07-20T04:07:22;9.68;;;4.07;;
29452;SDS011;16424;50.956;5.320;2023-07-20T04:09:48;7.78;;;4.15;;
29452;SDS011;16424;50.956;5.320;2023-07-20T04:12:14;20.77;;;4.60;;
29452;SDS011;16424;50.956;5.320;2023-07-20T04:14:40;8.20;;;4.05;;
29452;SDS011;16424;50.956;5.320;2023-07-20T04:17:11;15.93;;;5.07;;
29452;SDS011;16424;50.956;5.320;2023-07-20T04:19:40;8.18;;;4.43;;
29452;SDS011;16424;50.956;5.320;2023-07-20T04:22:12;10.20;;;4.43;;
29452;SDS011;16424;50.956;5.320;2023-07-20T04:24:41;11.50;;;5.03;;
29452;SDS011;16424;50.956;5.320;2023-07-20T04:27:10;13.93;;;4.55;;
29452;SDS011;16424;50.956;5.320;2023-07-20T04:29:39;11.98;;;4.90;;
29452;SDS011;16424;50.956;5.320;2023-07-20T04:32:14;8.93;;;4.75;;
29452;SDS011;16424;50.956;5.320;2023-07-20T04:34:42;12.30;;;4.82;;
29452;SDS011;16424;50.956;5.320;2023-07-20T04:37:09;10.98;;;4.70;;
29452;SDS011;16424;50.956;5.320;2023-07-20T04:39:34;8.88;;;5.57;;
29452;SDS011;16424;50.956;5.320;2023-07-20T04:42:09;12.10;;;5.78;;
29452;SDS011;16424;50.956;5.320;2023-07-20T04:44:41;13.38;;;5.45;;
29452;SDS011;16424;50.956;5.320;2023-07-20T04:47:13;9.73;;;5.38;;
29452;SDS011;16424;50.956;5.320;2023-07-20T04:49:44;12.77;;;6.28;;
29452;SDS011;16424;50.956;5.320;2023-07-20T04:52:10;10.98;;;6.13;;
29452;SDS011;16424;50.956;5.320;2023-07-20T04:54:36;12.85;;;6.78;;
29452;SDS011;16424;50.956;5.320;2023-07-20T04:57:09;11.82;;;6.60;;
29452;SDS011;16424;50.956;5.320;2023-07-20T04:59:36;11.95;;;5.88;;
29452;SDS011;16424;50.956;5.320;2023-07-20T05:02:05;10.52;;;5.88;;
29452;SDS011;16424;50.956;5.320;2023-07-20T05:04:31;10.73;;;5.68;;
29452;SDS011;16424;50.956;5.320;2023-07-20T05:07:04;11.93;;;6.63;;
29452;SDS011;16424;50.956;5.320;2023-07-20T05:09:33;16.05;;;6.75;;
29452;SDS011;16424;50.956;5.320;2023-07-20T05:12:08;18.75;;;7.70;;
29452;SDS011;16424;50.956;5.320;2023-07-20T05:17:09;15.02;;;7.38;;
29452;SDS011;16424;50.956;5.320;2023-07-20T05:19:35;10.52;;;7.38;;
29452;SDS011;16424;50.956;5.320;2023-07-20T05:22:01;12.80;;;6.60;;
29452;SDS011;16424;50.956;5.320;2023-07-20T05:24:28;15.90;;;8.30;;
29452;SDS011;16424;50.956;5.320;2023-07-20T05:26:54;13.63;;;7.15;;
29452;SDS011;16424;50.956;5.320;2023-07-20T05:29:20;12.95;;;8.52;;
29452;SDS011;16424;50.956;5.320;2023-07-20T05:31:48;15.75;;;8.30;;
29452;SDS011;16424;50.956;5.320;2023-07-20T05:34:14;16.40;;;8.95;;
29452;SDS011;16424;50.956;5.320;2023-07-20T05:36:40;14.98;;;8.80;;
29452;SDS011;16424;50.956;5.320;2023-07-20T05:39:06;14.45;;;9.07;;
29452;SDS011;16424;50.956;5.320;2023-07-20T05:41:32;14.05;;;8.82;;
29452;SDS011;16424;50.956;5.320;2023-07-20T05:43:58;18.30;;;9.35;;
29452;SDS011;16424;50.956;5.320;2023-07-20T05:46:24;17.25;;;9.85;;
29452;SDS011;16424;50.956;5.320;2023-07-20T05:48:50;14.20;;;9.45;;
29452;SDS011;16424;50.956;5.320;2023-07-20T05:51:16;15.80;;;8.85;;
29452;SDS011;16424;50.956;5.320;2023-07-20T05:53:42;18.00;;;10.52;;
29452;SDS011;16424;50.956;5.320;2023-07-20T05:56:08;22.23;;;10.15;;
29452;SDS011;16424;50.956;5.320;2023-07-20T05:58:37;20.65;;;9.65;;
29452;SDS011;16424;50.956;5.320;2023-07-20T06:01:03;18.38;;;10.25;;
29452;SDS011;16424;50.956;5.320;2023-07-20T06:03:31;19.05;;;11.98;;
29452;SDS011;16424;50.956;5.320;2023-07-20T06:05:59;18.42;;;11.25;;
29452;SDS011;16424;50.956;5.320;2023-07-20T06:08:27;17.80;;;10.98;;
29452;SDS011;16424;50.956;5.320;2023-07-20T06:10:54;20.90;;;13.80;;
29452;SDS011;16424;50.956;5.320;2023-07-20T06:13:20;17.60;;;12.00;;
29452;SDS011;16424;50.956;5.320;2023-07-20T06:15:46;20.73;;;12.02;;
29452;SDS011;16424;50.956;5.320;2023-07-20T06:18:13;20.75;;;13.60;;
29452;SDS011;16424;50.956;5.320;2023-07-20T06:20:39;20.80;;;12.23;;
29452;SDS011;16424;50.956;5.320;2023-07-20T06:23:05;20.02;;;13.02;;
29452;SDS011;16424;50.956;5.320;2023-07-20T06:25:31;20.90;;;13.35;;
29452;SDS011;16424;50.956;5.320;2023-07-20T06:28:00;20.65;;;12.00;;
29452;SDS011;16424;50.956;5.320;2023-07-20T06:30:26;17.65;;;13.63;;
29452;SDS011;16424;50.956;5.320;2023-07-20T06:32:52;18.25;;;12.30;;
29452;SDS011;16424;50.956;5.320;2023-07-20T06:35:18;16.85;;;12.40;;
29452;SDS011;16424;50.956;5.320;2023-07-20T06:37:44;18.27;;;12.73;;
29452;SDS011;16424;50.956;5.320;2023-07-20T06:40:10;16.58;;;11.35;;
29452;SDS011;16424;50.956;5.320;2023-07-20T06:42:39;20.08;;;12.73;;
29452;SDS011;16424;50.956;5.320;2023-07-20T06:45:06;18.98;;;11.15;;
29452;SDS011;16424;50.956;5.320;2023-07-20T06:47:34;16.30;;;10.93;;
29452;SDS011;16424;50.956;5.320;2023-07-20T06:50:00;15.32;;;10.65;;
29452;SDS011;16424;50.956;5.320;2023-07-20T06:52:26;16.70;;;11.77;;
29452;SDS011;16424;50.956;5.320;2023-07-20T06:54:52;14.25;;;11.15;;
29452;SDS011;16424;50.956;5.320;2023-07-20T06:57:18;16.63;;;10.73;;
29452;SDS011;16424;50.956;5.320;2023-07-20T06:59:44;16.33;;;11.23;;
29452;SDS011;16424;50.956;5.320;2023-07-20T07:02:10;18.05;;;10.85;;
29452;SDS011;16424;50.956;5.320;2023-07-20T07:04:36;15.48;;;11.13;;
29452;SDS011;16424;50.956;5.320;2023-07-20T07:07:02;14.35;;;10.82;;
29452;SDS011;16424;50.956;5.320;2023-07-20T07:09:29;15.68;;;10.85;;
29452;SDS011;16424;50.956;5.320;2023-07-20T07:11:55;18.38;;;11.07;;
29452;SDS011;16424;50.956;5.320;2023-07-20T07:14:21;15.65;;;10.70;;
29452;SDS011;16424;50.956;5.320;2023-07-20T07:16:47;13.85;;;9.55;;
29452;SDS011;16424;50.956;5.320;2023-07-20T07:19:13;16.92;;;9.57;;
29452;SDS011;16424;50.956;5.320;2023-07-20T07:21:39;12.18;;;9.43;;
29452;SDS011;16424;50.956;5.320;2023-07-20T07:24:05;15.70;;;9.73;;
29452;SDS011;16424;50.956;5.320;2023-07-20T07:26:33;12.82;;;9.40;;
29452;SDS011;16424;50.956;5.320;2023-07-20T07:28:58;16.50;;;10.70;;
29452;SDS011;16424;50.956;5.320;2023-07-20T07:31:25;15.88;;;10.48;;
29452;SDS011;16424;50.956;5.320;2023-07-20T07:33:51;14.85;;;10.10;;
29452;SDS011;16424;50.956;5.320;2023-07-20T07:36:17;13.43;;;9.35;;
29452;SDS011;16424;50.956;5.320;2023-07-20T07:38:43;14.07;;;9.40;;
29452;SDS011;16424;50.956;5.320;2023-07-20T07:41:08;15.25;;;9.70;;
29452;SDS011;16424;50.956;5.320;2023-07-20T07:43:34;14.18;;;9.18;;
29452;SDS011;16424;50.956;5.320;2023-07-20T07:46:00;13.23;;;9.00;;
29452;SDS011;16424;50.956;5.320;2023-07-20T07:48:27;11.52;;;8.65;;
29452;SDS011;16424;50.956;5.320;2023-07-20T07:50:53;14.23;;;8.95;;
29452;SDS011;16424;50.956;5.320;2023-07-20T07:53:20;15.00;;;8.23;;
29452;SDS011;16424;50.956;5.320;2023-07-20T07:55:49;9.15;;;7.32;;
29452;SDS011;16424;50.956;5.320;2023-07-20T07:58:16;12.27;;;7.93;;
29452;SDS011;16424;50.956;5.320;2023-07-20T08:00:42;9.13;;;7.63;;
29452;SDS011;16424;50.956;5.320;2023-07-20T08:03:09;8.30;;;6.05;;
29452;SDS011;16424;50.956;5.320;2023-07-20T08:05:35;10.13;;;5.95;;
29452;SDS011;16424;50.956;5.320;2023-07-20T08:08:01;9.70;;;5.65;;
29452;SDS011;16424;50.956;5.320;2023-07-20T08:10:29;9.02;;;5.03;;
29452;SDS011;16424;50.956;5.320;2023-07-20T08:12:55;7.95;;;5.35;;
29452;SDS011;16424;50.956;5.320;2023-07-20T08:15:21;9.77;;;5.28;;
29452;SDS011;16424;50.956;5.320;2023-07-20T08:17:47;6.88;;;4.13;;
29452;SDS011;16424;50.956;5.320;2023-07-20T08:20:14;8.32;;;3.60;;
29452;SDS011;16424;50.956;5.320;2023-07-20T08:22:42;6.53;;;4.35;;
29452;SDS011;16424;50.956;5.320;2023-07-20T08:25:08;5.90;;;4.40;;
29452;SDS011;16424;50.956;5.320;2023-07-20T08:27:35;7.53;;;4.63;;
29452;SDS011;16424;50.956;5.320;2023-07-20T08:30:02;10.32;;;4.93;;
29452;SDS011;16424;50.956;5.320;2023-07-20T08:32:29;5.78;;;3.63;;
29452;SDS011;16424;50.956;5.320;2023-07-20T08:34:55;4.97;;;3.20;;
29452;SDS011;16424;50.956;5.320;2023-07-20T08:37:22;5.68;;;3.13;;
29452;SDS011;16424;50.956;5.320;2023-07-20T08:39:48;5.35;;;3.55;;
29452;SDS011;16424;50.956;5.320;2023-07-20T08:42:14;7.13;;;3.13;;
29452;SDS011;16424;50.956;5.320;2023-07-20T08:44:41;4.15;;;2.80;;
29452;SDS011;16424;50.956;5.320;2023-07-20T08:47:10;6.68;;;3.53;;
29452;SDS011;16424;50.956;5.320;2023-07-20T08:49:37;4.60;;;3.78;;
29452;SDS011;16424;50.956;5.320;2023-07-20T08:52:05;5.15;;;3.58;;
29452;SDS011;16424;50.956;5.320;2023-07-20T08:54:32;4.25;;;3.35;;
29452;SDS011;16424;50.956;5.320;2023-07-20T08:57:03;4.20;;;2.97;;
29452;SDS011;16424;50.956;5.320;2023-07-20T08:59:30;3.80;;;3.22;;
29452;SDS011;16424;50.956;5.320;2023-07-20T09:02:00;5.00;;;2.55;;
29452;SDS011;16424;50.956;5.320;2023-07-20T09:04:29;5.13;;;3.17;;
29452;SDS011;16424;50.956;5.320;2023-07-20T09:06:57;2.85;;;2.55;;
29452;SDS011;16424;50.956;5.320;2023-07-20T09:09:23;5.35;;;2.80;;
29452;SDS011;16424;50.956;5.320;2023-07-20T09:11:49;2.63;;;2.35;;
29452;SDS011;16424;50.956;5.320;2023-07-20T09:14:15;3.58;;;2.22;;
29452;SDS011;16424;50.956;5.320;2023-07-20T09:16:48;6.13;;;2.28;;
29452;SDS011;16424;50.956;5.320;2023-07-20T09:19:19;1.98;;;1.55;;
29452;SDS011;16424;50.956;5.320;2023-07-20T09:21:49;4.78;;;1.98;;
29452;SDS011;16424;50.956;5.320;2023-07-20T09:24:17;3.13;;;1.77;;
29452;SDS011;16424;50.956;5.320;2023-07-20T09:26:45;2.25;;;1.98;;
29452;SDS011;16424;50.956;5.320;2023-07-20T09:29:13;2.85;;;1.75;;
29452;SDS011;16424;50.956;5.320;2023-07-20T09:31:43;2.58;;;1.75;;
29452;SDS011;16424;50.956;5.320;2023-07-20T09:34:31;1.98;;;1.50;;
29452;SDS011;16424;50.956;5.320;2023-07-20T09:36:57;4.72;;;2.22;;
29452;SDS011;16424;50.956;5.320;2023-07-20T09:39:24;2.90;;;1.63;;
29452;SDS011;16424;50.956;5.320;2023-07-20T09:41:51;5.65;;;1.83;;
29452;SDS011;16424;50.956;5.320;2023-07-20T09:44:17;2.55;;;1.70;;
29452;SDS011;16424;50.956;5.320;2023-07-20T09:46:45;4.70;;;2.55;;
29452;SDS011;16424;50.956;5.320;2023-07-20T09:49:13;3.53;;;1.40;;
29452;SDS011;16424;50.956;5.320;2023-07-20T09:51:39;4.80;;;1.15;;
29452;SDS011;16424;50.956;5.320;2023-07-20T09:54:07;3.35;;;1.42;;
29452;SDS011;16424;50.956;5.320;2023-07-20T09:56:34;3.83;;;2.53;;
29452;SDS011;16424;50.956;5.320;2023-07-20T09:59:00;2.60;;;1.80;;
29452;SDS011;16424;50.956;5.320;2023-07-20T10:01:26;2.47;;;1.90;;
29452;SDS011;16424;50.956;5.320;2023-07-20T10:03:56;2.08;;;1.88;;
29452;SDS011;16424;50.956;5.320;2023-07-20T10:06:24;2.67;;;1.88;;
29452;SDS011;16424;50.956;5.320;2023-07-20T10:08:55;2.33;;;1.90;;
29452;SDS011;16424;50.956;5.320;2023-07-20T10:11:24;2.22;;;1.40;;
29452;SDS011;16424;50.956;5.320;2023-07-20T10:13:54;2.13;;;1.92;;
29452;SDS011;16424;50.956;5.320;2023-07-20T10:16:35;3.38;;;1.90;;
29452;SDS011;16424;50.956;5.320;2023-07-20T10:19:03;2.42;;;2.22;;
29452;SDS011;16424;50.956;5.320;2023-07-20T10:21:37;4.28;;;1.60;;
29452;SDS011;16424;50.956;5.320;2023-07-20T10:24:07;2.05;;;1.70;;
29452;SDS011;16424;50.956;5.320;2023-07-20T10:26:34;2.92;;;1.50;;
29452;SDS011;16424;50.956;5.320;2023-07-20T10:29:00;5.05;;;1.75;;
29452;SDS011;16424;50.956;5.320;2023-07-20T10:31:27;1.92;;;1.60;;
29452;SDS011;16424;50.956;5.320;2023-07-20T10:33:54;2.13;;;0.95;;
29452;SDS011;16424;50.956;5.320;2023-07-20T10:36:24;3.25;;;0.88;;
29452;SDS011;16424;50.956;5.320;2023-07-20T10:38:53;2.42;;;1.20;;
29452;SDS011;16424;50.956;5.320;2023-07-20T10:43:47;2.35;;;1.45;;
29452;SDS011;16424;50.956;5.320;2023-07-20T10:46:14;3.50;;;1.08;;
29452;SDS011;16424;50.956;5.320;2023-07-20T10:51:56;1.30;;;1.20;;
29452;SDS011;16424;50.956;5.320;2023-07-20T10:56:54;1.73;;;1.20;;
29452;SDS011;16424;50.956;5.320;2023-07-20T11:01:50;1.42;;;1.20;;
29452;SDS011;16424;50.956;5.320;2023-07-20T11:04:37;2.05;;;1.50;;
29452;SDS011;16424;50.956;5.320;2023-07-20T11:07:03;1.30;;;1.15;;
29452;SDS011;16424;50.956;5.320;2023-07-20T11:09:33;2.10;;;1.38;;
29452;SDS011;16424;50.956;5.320;2023-07-20T11:12:12;2.78;;;1.13;;
29452;SDS011;16424;50.956;5.320;2023-07-20T11:14:40;2.67;;;1.50;;
29452;SDS011;16424;50.956;5.320;2023-07-20T11:17:30;1.95;;;0.90;;
29452;SDS011;16424;50.956;5.320;2023-07-20T11:19:56;3.75;;;1.23;;
29452;SDS011;16424;50.956;5.320;2023-07-20T11:22:26;1.70;;;1.40;;
29452;SDS011;16424;50.956;5.320;2023-07-20T11:24:55;2.22;;;1.15;;
29452;SDS011;16424;50.956;5.320;2023-07-20T11:27:21;1.55;;;1.00;;
29452;SDS011;16424;50.956;5.320;2023-07-20T11:29:47;2.40;;;1.10;;
29452;SDS011;16424;50.956;5.320;2023-07-20T11:32:23;2.00;;;1.20;;
29452;SDS011;16424;50.956;5.320;2023-07-20T11:34:49;1.73;;;1.00;;
29452;SDS011;16424;50.956;5.320;2023-07-20T11:37:16;1.05;;;0.95;;
29452;SDS011;16424;50.956;5.320;2023-07-20T11:39:43;1.05;;;0.77;;
29452;SDS011;16424;50.956;5.320;2023-07-20T11:42:09;2.53;;;1.17;;
29452;SDS011;16424;50.956;5.320;2023-07-20T11:44:36;1.20;;;1.10;;
29452;SDS011;16424;50.956;5.320;2023-07-20T11:47:03;3.20;;;0.95;;
29452;SDS011;16424;50.956;5.320;2023-07-20T11:49:43;1.38;;;0.93;;
29452;SDS011;16424;50.956;5.320;2023-07-20T11:52:15;2.65;;;1.10;;
29452;SDS011;16424;50.956;5.320;2023-07-20T11:54:42;1.02;;;0.80;;
29452;SDS011;16424;50.956;5.320;2023-07-20T11:57:18;1.65;;;0.70;;
29452;SDS011;16424;50.956;5.320;2023-07-20T11:59:57;3.38;;;1.13;;
29452;SDS011;16424;50.956;5.320;2023-07-20T12:02:30;2.40;;;0.98;;
29452;SDS011;16424;50.956;5.320;2023-07-20T12:04:57;1.63;;;0.90;;
29452;SDS011;16424;50.956;5.320;2023-07-20T12:07:25;1.90;;;1.27;;
29452;SDS011;16424;50.956;5.320;2023-07-20T12:10:03;1.23;;;0.73;;
29452;SDS011;16424;50.956;5.320;2023-07-20T12:12:31;3.67;;;1.20;;
29452;SDS011;16424;50.956;5.320;2023-07-20T12:15:16;2.90;;;0.90;;
29452;SDS011;16424;50.956;5.320;2023-07-20T12:17:45;2.88;;;1.27;;
29452;SDS011;16424;50.956;5.320;2023-07-20T12:20:24;1.92;;;1.20;;
29452;SDS011;16424;50.956;5.320;2023-07-20T12:22:51;0.88;;;0.77;;
29452;SDS011;16424;50.956;5.320;2023-07-20T12:25:18;3.55;;;1.40;;
29452;SDS011;16424;50.956;5.320;2023-07-20T12:27:45;4.30;;;1.10;;
29452;SDS011;16424;50.956;5.320;2023-07-20T12:30:12;1.10;;;1.00;;
29452;SDS011;16424;50.956;5.320;2023-07-20T12:32:39;2.50;;;1.40;;
29452;SDS011;16424;50.956;5.320;2023-07-20T12:35:05;1.00;;;0.82;;
29452;SDS011;16424;50.956;5.320;2023-07-20T12:37:31;1.95;;;0.68;;
29452;SDS011;16424;50.956;5.320;2023-07-20T12:39:57;3.45;;;0.65;;
29452;SDS011;16424;50.956;5.320;2023-07-20T12:42:23;1.00;;;0.90;;
29452;SDS011;16424;50.956;5.320;2023-07-20T12:44:49;2.58;;;0.70;;
29452;SDS011;16424;50.956;5.320;2023-07-20T12:47:16;0.93;;;0.70;;
29452;SDS011;16424;50.956;5.320;2023-07-20T12:49:43;1.83;;;0.80;;
29452;SDS011;16424;50.956;5.320;2023-07-20T12:52:10;2.05;;;0.80;;
29452;SDS011;16424;50.956;5.320;2023-07-20T12:54:36;0.77;;;0.73;;
29452;SDS011;16424;50.956;5.320;2023-07-20T12:57:02;1.38;;;0.90;;
29452;SDS011;16424;50.956;5.320;2023-07-20T12:59:28;2.47;;;1.00;;
29452;SDS011;16424;50.956;5.320;2023-07-20T13:01:54;1.10;;;0.80;;
29452;SDS011;16424;50.956;5.320;2023-07-20T13:04:20;1.10;;;0.75;;
29452;SDS011;16424;50.956;5.320;2023-07-20T13:06:46;1.42;;;0.70;;
29452;SDS011;16424;50.956;5.320;2023-07-20T13:09:11;3.15;;;0.82;;
29452;SDS011;16424;50.956;5.320;2023-07-20T13:11:37;1.75;;;0.82;;
29452;SDS011;16424;50.956;5.320;2023-07-20T13:14:03;1.00;;;0.80;;
29452;SDS011;16424;50.956;5.320;2023-07-20T13:16:29;2.17;;;0.85;;
29452;SDS011;16424;50.956;5.320;2023-07-20T13:18:55;1.23;;;0.70;;
29452;SDS011;16424;50.956;5.320;2023-07-20T13:21:21;1.33;;;0.70;;
29452;SDS011;16424;50.956;5.320;2023-07-20T13:23:48;1.33;;;0.80;;
29452;SDS011;16424;50.956;5.320;2023-07-20T13:26:14;1.30;;;0.70;;
29452;SDS011;16424;50.956;5.320;2023-07-20T13:28:41;1.60;;;1.13;;
29452;SDS011;16424;50.956;5.320;2023-07-20T13:31:07;3.10;;;0.80;;
29452;SDS011;16424;50.956;5.320;2023-07-20T13:33:35;1.42;;;0.93;;
29452;SDS011;16424;50.956;5.320;2023-07-20T13:36:01;1.13;;;0.85;;
29452;SDS011;16424;50.956;5.320;2023-07-20T13:38:27;0.80;;;0.50;;
29452;SDS011;16424;50.956;5.320;2023-07-20T13:40:53;1.30;;;0.60;;
29452;SDS011;16424;50.956;5.320;2023-07-20T13:43:18;3.92;;;1.55;;
29452;SDS011;16424;50.956;5.320;2023-07-20T13:45:44;1.17;;;0.70;;
29452;SDS011;16424;50.956;5.320;2023-07-20T13:48:10;0.93;;;0.60;;
29452;SDS011;16424;50.956;5.320;2023-07-20T13:50:36;1.80;;;0.80;;
29452;SDS011;16424;50.956;5.320;2023-07-20T13:53:02;1.77;;;0.60;;
29452;SDS011;16424;50.956;5.320;2023-07-20T13:55:28;0.60;;;0.60;;
29452;SDS011;16424;50.956;5.320;2023-07-20T13:57:56;1.08;;;0.55;;
29452;SDS011;16424;50.956;5.320;2023-07-20T14:00:22;0.70;;;0.60;;
29452;SDS011;16424;50.956;5.320;2023-07-20T14:02:49;1.63;;;0.68;;
29452;SDS011;16424;50.956;5.320;2023-07-20T14:05:15;1.20;;;0.80;;
29452;SDS011;16424;50.956;5.320;2023-07-20T14:07:41;3.78;;;1.17;;
29452;SDS011;16424;50.956;5.320;2023-07-20T14:10:08;1.10;;;0.80;;
29452;SDS011;16424;50.956;5.320;2023-07-20T14:12:34;1.00;;;0.55;;
29452;SDS011;16424;50.956;5.320;2023-07-20T14:15:00;0.68;;;0.50;;
29452;SDS011;16424;50.956;5.320;2023-07-20T14:17:26;0.57;;;0.52;;
29452;SDS011;16424;50.956;5.320;2023-07-20T14:19:52;2.70;;;0.50;;
29452;SDS011;16424;50.956;5.320;2023-07-20T14:22:18;0.73;;;0.68;;
29452;SDS011;16424;50.956;5.320;2023-07-20T14:24:44;0.70;;;0.40;;
29452;SDS011;16424;50.956;5.320;2023-07-20T14:27:09;1.85;;;0.47;;
29452;SDS011;16424;50.956;5.320;2023-07-20T14:29:36;0.73;;;0.60;;
29452;SDS011;16424;50.956;5.320;2023-07-20T14:32:02;0.75;;;0.40;;
29452;SDS011;16424;50.956;5.320;2023-07-20T14:34:31;0.80;;;0.70;;
29452;SDS011;16424;50.956;5.320;2023-07-20T14:36:58;0.43;;;0.40;;
29452;SDS011;16424;50.956;5.320;2023-07-20T14:39:24;1.10;;;0.50;;
29452;SDS011;16424;50.956;5.320;2023-07-20T14:41:50;0.75;;;0.60;;
29452;SDS011;16424;50.956;5.320;2023-07-20T14:44:16;0.75;;;0.32;;
29452;SDS011;16424;50.956;5.320;2023-07-20T14:46:44;0.55;;;0.30;;
29452;SDS011;16424;50.956;5.320;2023-07-20T14:49:10;1.98;;;0.57;;
29452;SDS011;16424;50.956;5.320;2023-07-20T14:51:36;0.40;;;0.32;;
29452;SDS011;16424;50.956;5.320;2023-07-20T14:54:08;3.28;;;0.80;;
29452;SDS011;16424;50.956;5.320;2023-07-20T14:56:35;0.93;;;0.70;;
29452;SDS011;16424;50.956;5.320;2023-07-20T14:59:03;1.48;;;0.85;;
29452;SDS011;16424;50.956;5.320;2023-07-20T15:01:29;1.17;;;0.40;;
29452;SDS011;16424;50.956;5.320;2023-07-20T15:03:55;1.48;;;0.60;;
29452;SDS011;16424;50.956;5.320;2023-07-20T15:06:21;1.33;;;0.75;;
29452;SDS011;16424;50.956;5.320;2023-07-20T15:08:47;1.17;;;0.50;;
29452;SDS011;16424;50.956;5.320;2023-07-20T15:11:13;0.98;;;0.68;;
29452;SDS011;16424;50.956;5.320;2023-07-20T15:13:39;1.05;;;0.60;;
29452;SDS011;16424;50.956;5.320;2023-07-20T15:16:08;0.95;;;0.75;;